Latest Coastal Weather Observations for Eucla

IDS60701

Issued at 1:41 pm CST Wednesday 27 May 2015 (issued every 10 minutes, with the page automatically refreshed every 10 minutes)

About coastal observations | Map of coastal stations | Coastal observations for SA | Marine services | Other Formats
Station Details ID: 011003 Name: EUCLA Lat: -31.68 Lon: 128.90 Height: 93.1 m
Data from the previous 72 hours. | See also: Recent months at Eucla
Date/Time
CST
Temp

°C
Wind Pressure Rain
since 9am
mm
Weather Cloud Vis
km
Sea
Height
m
Swell
Dir
 
Speed
knots
Gust
knots
hPa Trend Height
m
Period
s
Dir
27/01:30pm 19.0 SSE 6 9 1019.6 - 0.0 - - - - - - -
27/01:00pm 19.3 S 7 11 1020.3 - 0.0 - - - - - - -
27/12:30pm 19.2 S 7 9 1021.0 - 0.0 - - - - - - -
27/12:00pm 19.3 S 6 9 1021.1 - 0.0 - - - - - - -
27/11:30am 19.0 S 4 7 1021.6 - 0.0 - - - - - - -
27/11:00am 18.7 S 4 6 1021.9 - 0.0 - - - - - - -
27/10:30am 18.0 SSW 5 6 1022.0 - 0.0 Haze Mostly clear 25 - - - -
27/10:00am 16.7 SSW 4 6 1022.0 - 0.0 - - - - - - -
27/09:30am 15.6 CALM 0 3 1021.7 - 0.0 - - - - - - -
27/09:00am 12.3 NNW 4 5 1021.6 - 0.0 - - - - - - -
27/08:30am 9.9 WSW 5 5 1021.4 - 0.0 - - - - - - -
27/08:00am 8.1 N 5 5 1021.2 - 0.0 - - - - - - -
27/07:30am 10.0 NNW 5 5 1021.1 - 0.0 - - - - - - -
27/07:00am 11.0 WNW 6 7 1020.9 - 0.0 - - - - - - -
27/06:30am 9.8 NNW 5 5 1020.7 - 0.0 - - - - - - -
27/06:00am 10.2 NW 5 6 1020.6 - 0.0 - - - - - - -
27/05:30am 10.4 NW 5 6 1020.6 - 0.0 - - - - - - -
27/05:00am 10.9 NW 6 8 1020.6 - 0.0 - - - - - - -
27/04:30am 11.3 NW 7 9 1020.6 - 0.0 - - - - - - -
27/04:00am 10.5 NNW 6 8 1020.7 - 0.0 - - - - - - -
27/03:30am 11.1 NW 5 7 1020.7 - 0.0 - - - - - - -
27/03:00am 11.3 NNW 8 10 1020.7 - 0.0 - - - - - - -
27/02:30am 11.6 NNW 7 9 1020.9 - 0.0 - - - - - - -
27/02:00am 12.3 WNW 6 11 1021.0 - 0.0 - - - - - - -
27/01:30am 12.0 WNW 5 6 1021.3 - 0.0 - - - - - - -
27/01:00am 12.3 NW 7 11 1021.8 - 0.0 - - - - - - -
27/12:30am 12.8 NNW 10 14 1021.2 - 0.0 - - - - - - -
27/12:00am 12.9 NNW 9 11 1021.4 - 0.0 - - - - - - -
 
Date/Time
CST
Temp

°C
Wind Pressure Rain
since 9am
mm
Weather Cloud Vis
km
Sea
Height
m
Swell
Dir
 
Speed
knots
Gust
knots
hPa Trend Height
m
Period
s
Dir
26/11:30pm 13.5 NNW 8 10 1021.5 - 0.0 - - - - - - -
26/11:00pm 14.5 NNW 8 11 1021.5 - 0.0 - - - - - - -
26/10:30pm 14.7 NNW 9 11 1021.7 - 0.0 - - - - - - -
26/10:00pm 15.2 NNW 9 13 1021.6 - 0.0 - - - - - - -
26/09:30pm 15.5 NNW 9 11 1021.6 - 0.0 - - - - - - -
26/09:00pm 15.6 NNW 8 10 1021.5 - 0.0 - - - - - - -
26/08:30pm 15.7 NNW 7 10 1021.5 - 0.0 - - - - - - -
26/08:00pm 16.3 N 7 9 1021.5 - 0.0 - - - - - - -
26/07:30pm 17.0 N 8 10 1021.2 - 0.0 - - - - - - -
26/07:00pm 15.5 N 5 7 1020.9 - 0.0 - - - - - - -
26/06:30pm 16.3 NE 5 6 1020.7 - 0.0 - - - - - - -
26/06:00pm 17.2 ESE 4 5 1020.4 - 0.0 - - - - - - -
26/05:30pm 18.0 SE 4 5 1020.1 - 0.0 - - - - - - -
26/05:00pm 19.0 ESE 4 5 1019.8 - 0.0 - - - - - - -
26/04:30pm 19.0 SE 5 7 1020.1 - 0.0 Fine Partly cloudy 40 - - - -
26/04:00pm 19.2 SE 5 6 1020.1 - 0.0 - - - - - - -
26/03:30pm 19.7 SE 5 7 1019.8 - 0.0 - - - - - - -
26/03:00pm 20.1 SSE 8 10 1019.7 - 0.0 - - - - - - -
26/02:30pm 21.3 SSE 7 9 1020.0 - 0.0 - - - - - - -
26/02:00pm 21.9 W 6 11 1020.3 - 0.0 - - - - - - -
26/01:30pm 22.5 NNW 7 12 1020.7 - 0.0 - - - - - - -
26/01:00pm 22.0 NW 7 11 1021.0 - 0.0 - - - - - - -
26/12:30pm 22.6 NW 6 13 1021.7 - 0.0 - - - - - - -
26/12:00pm 21.8 NW 6 12 1022.1 - 0.0 - - - - - - -
26/11:30am 20.2 WNW 7 11 1022.7 - 0.0 - - - - - - -
26/11:00am 20.1 NW 9 15 1023.0 - 0.0 - - - - - - -
26/10:30am 19.3 WNW 10 14 1023.1 - 0.2 Fine Mostly clear 40 - - - -
26/10:00am 17.7 NW 9 13 1023.0 - 0.2 - - - - - - -
26/09:30am 16.3 NNW 9 12 1023.1 - 0.2 - - - - - - -
26/09:00am 15.7 NW 10 15 1023.1 - 0.2 - - - - - - -
26/08:30am 13.4 NNW 9 11 1022.9 - 0.2 - - - - - - -
26/08:00am 11.8 NNW 6 8 1022.7 - 0.2 - - - - - - -
26/07:30am 13.1 NW 7 9 1022.5 - 0.2 - - - - - - -
26/07:00am 13.0 NW 6 8 1022.3 - 0.2 - - - - - - -
26/06:30am 12.2 NNW 6 7 1022.1 - 0.2 - - - - - - -
26/06:00am 12.5 NNW 6 7 1022.0 - 0.2 - - - - - - -
26/05:30am 12.7 NNW 7 9 1021.9 - 0.2 - - - - - - -
26/05:00am 12.0 NNW 7 10 1021.8 - 0.2 - - - - - - -
26/04:30am 11.5 N 7 9 1021.7 - 0.2 - - - - - - -
26/04:00am 11.7 N 7 9 1021.8 - 0.2 - - - - - - -
26/03:30am 11.5 N 7 9 1021.9 - 0.2 - - - - - - -
26/03:00am 11.7 N 7 8 1022.0 - 0.2 - - - - - - -
26/02:30am 12.0 N 7 8 1022.4 - 0.2 - - - - - - -
26/02:00am 12.5 N 6 7 1022.3 - 0.2 - - - - - - -
26/01:30am 13.0 N 7 8 1022.6 - 0.2 - - - - - - -
26/01:00am 13.4 N 7 9 1022.8 - 0.2 - - - - - - -
26/12:30am 12.9 N 7 9 1022.9 - 0.2 - - - - - - -
26/12:00am 12.8 N 7 9 1023.3 - 0.2 - - - - - - -
 
Date/Time
CST
Temp

°C
Wind Pressure Rain
since 9am
mm
Weather Cloud Vis
km
Sea
Height
m
Swell
Dir
 
Speed
knots
Gust
knots
hPa Trend Height
m
Period
s
Dir
25/11:30pm 13.0 N 6 7 1023.4 - 0.2 - - - - - - -
25/11:00pm 12.8 N 6 8 1023.5 - 0.2 - - - - - - -
25/10:30pm 13.1 N 6 6 1023.4 - 0.2 - - - - - - -
25/10:00pm 12.8 N 6 6 1023.3 - 0.2 - - - - - - -
25/09:30pm 13.5 N 6 6 1023.3 - 0.2 - - - - - - -
25/09:00pm 14.6 NNE 6 8 1023.0 - 0.2 - - - - - - -
25/08:30pm 15.2 NNE 7 8 1022.9 - 0.2 - - - - - - -
25/08:00pm 15.6 NNE 6 7 1023.0 - 0.2 - - - - - - -
25/07:30pm 16.6 NNE 6 7 1022.8 - 0.2 - - - - - - -
25/07:00pm 17.4 NNE 7 9 1022.5 - 0.2 - - - - - - -
25/06:30pm 17.8 NNE 7 8 1022.2 - 0.2 - - - - - - -
25/06:00pm 18.2 N 6 8 1022.0 - 0.2 - - - - - - -
25/05:30pm 18.4 N 5 7 1021.9 - 0.2 - - - - - - -
25/05:00pm 18.7 N 6 9 1021.9 - 0.2 - - - - - - -
25/04:30pm 18.9 NNW 8 13 1021.7 - 0.2 Fine Partly cloudy 40 - - - -
25/04:00pm 20.1 N 9 14 1021.6 - 0.0 - - - - - - -
25/03:30pm 20.3 NNW 9 14 1021.5 - 0.0 - - - - - - -
25/03:00pm 18.3 NNW 8 12 1021.6 - 0.0 - - - - - - -
25/02:30pm 18.6 N 9 14 1021.8 - 0.0 - - - - - - -
25/02:00pm 17.8 N 9 13 1022.1 - 0.0 - - - - - - -
25/01:30pm 17.6 NNW 10 13 1022.4 - 0.0 - - - - - - -
25/01:00pm 16.8 NNW 10 16 1022.9 - 0.0 - - - - - - -
25/12:30pm 18.0 N 10 15 1023.0 - 0.0 - - - - - - -
25/12:00pm 17.1 N 11 16 1023.1 - 0.0 - - - - - - -
25/11:30am 17.2 N 12 17 1023.3 - 0.0 - - - - - - -
25/11:00am 17.5 N 12 17 1023.4 - 0.0 - - - - - - -
25/10:30am 16.5 N 11 15 1023.6 - 0.2 Fine Mostly cloudy 40 - - - -
25/10:00am 15.6 N 10 14 1023.8 - 0.2 - - - - - - -
25/09:30am 15.3 N 9 14 1023.7 - 0.2 - - - - - - -
25/09:00am 14.9 N 11 17 1023.6 - 0.2 - - - - - - -
25/08:30am 14.8 N 8 11 1023.4 - 0.2 - - - - - - -
25/08:00am 14.8 N 9 12 1023.3 - 0.2 - - - - - - -
25/07:30am 14.8 N 9 13 1023.2 - 0.2 - - - - - - -
25/07:00am 14.7 N 9 13 1022.9 - 0.2 - - - - - - -
25/06:30am 14.6 N 8 10 1022.5 - 0.2 - - - - - - -
25/06:00am 14.9 N 7 9 1022.3 - 0.2 - - - - - - -
25/05:30am 15.0 N 7 8 1022.2 - 0.2 - - - - - - -
25/05:00am 14.7 N 6 8 1022.0 - 0.2 - - - - - - -
25/04:30am 15.0 N 6 7 1022.2 - 0.2 - - - - - - -
25/04:00am 15.1 N 7 9 1022.5 - 0.2 - - - - - - -
25/03:30am 14.7 N 7 9 1022.5 - 0.2 - - - - - - -
25/03:00am 14.7 N 7 9 1022.4 - 0.2 - - - - - - -
25/02:30am 15.0 NNE 7 10 1022.3 - 0.2 - - - - - - -
25/02:00am 15.2 N 7 10 1022.3 - 0.2 - - - - - - -
25/01:30am 15.0 N 8 10 1022.4 - 0.2 - - - - - - -
25/01:00am 14.9 NNE 7 9 1022.7 - 0.2 - - - - - - -
25/12:30am 15.0 NNE 6 8 1023.0 - 0.2 - - - - - - -
25/12:00am 15.1 NE 5 7 1023.0 - 0.2 - - - - - - -
 
Date/Time
CST
Temp

°C
Wind Pressure Rain
since 9am
mm
Weather Cloud Vis
km
Sea
Height
m
Swell
Dir
 
Speed
knots
Gust
knots
hPa Trend Height
m
Period
s
Dir
24/11:30pm 15.3 NE 5 6 1023.1 - 0.2 - - - - - - -
24/11:00pm 15.6 ENE 6 8 1023.1 - 0.2 - - - - - - -
24/10:30pm 15.5 ENE 6 8 1023.1 - 0.2 - - - - - - -
24/10:00pm 15.5 ENE 6 9 1023.1 - 0.2 - - - - - - -
24/09:30pm 15.6 ENE 7 9 1023.0 - 0.2 - - - - - - -
24/09:00pm 15.5 E 6 10 1022.9 - 0.2 - - - - - - -
24/08:30pm 15.3 E 6 8 1022.8 - 0.2 - - - - - - -
24/08:00pm 15.5 E 7 11 1022.8 - 0.2 - - - - - - -
24/07:30pm 15.5 E 7 10 1022.6 - 0.2 - - - - - - -
24/07:00pm 15.4 E 7 10 1022.5 - 0.2 - - - - - - -
24/06:30pm 15.3 E 7 10 1022.0 - 0.2 - - - - - - -
24/06:00pm 15.3 ESE 6 9 1021.7 - 0.2 - - - - - - -
24/05:30pm 16.0 ESE 8 12 1021.4 - 0.2 - - - - - - -
24/05:00pm 16.7 ESE 9 14 1021.1 - 0.2 - - - - - - -
24/04:30pm 16.9 ESE 9 13 1021.0 - 0.2 Fine Mostly clear 40 - - - -
24/04:00pm 17.6 ESE 11 15 1020.9 - 0.2 - - - - - - -
24/03:30pm 17.9 SE 8 11 1020.7 - 0.2 - - - - - - -

Other Formats:

Comma delimited format used in spreadsheet applications
http://www.bom.gov.au/fwo/IDS60701/IDS60701.94647.axf

JavaScript Object Notation format (JSON) in row-major order
http://www.bom.gov.au/fwo/IDS60701/IDS60701.94647.json